createdAt,value
2023-04-29T00:00:42.909Z,11.61
2023-04-29T00:03:10.632Z,11.48
2023-04-29T00:05:38.503Z,11.53
2023-04-29T00:08:06.392Z,11.29
2023-04-29T00:10:34.412Z,11.40
2023-04-29T00:13:02.053Z,11.26
2023-04-29T00:15:29.833Z,11.20
2023-04-29T00:17:57.432Z,11.08
2023-04-29T00:20:24.970Z,11.22
2023-04-29T00:22:52.684Z,11.36
2023-04-29T00:25:20.760Z,11.35
2023-04-29T00:27:48.415Z,11.11
2023-04-29T00:30:16.253Z,11.29
2023-04-29T00:32:44.874Z,11.20
2023-04-29T00:35:12.503Z,11.21
2023-04-29T00:37:40.284Z,11.11
2023-04-29T00:40:08.725Z,10.96
2023-04-29T00:42:36.638Z,10.83
2023-04-29T00:45:05.154Z,11.00
2023-04-29T00:47:34.510Z,11.00
2023-04-29T00:50:02.082Z,11.20
2023-04-29T00:52:31.667Z,11.07
2023-04-29T00:54:59.927Z,11.09
2023-04-29T00:57:30.410Z,11.07
2023-04-29T00:59:58.991Z,10.93
2023-04-29T01:02:26.896Z,10.96
2023-04-29T01:04:54.703Z,11.04
2023-04-29T01:07:51.573Z,11.14
2023-04-29T01:10:32.271Z,11.18
2023-04-29T01:13:19.348Z,11.28
2023-04-29T01:15:59.451Z,11.16
2023-04-29T01:18:30.480Z,11.15
2023-04-29T01:20:59.195Z,11.05
2023-04-29T01:23:30.039Z,11.23
2023-04-29T01:25:58.720Z,11.09
2023-04-29T01:28:54.747Z,10.99
2023-04-29T01:31:31.386Z,11.01
2023-04-29T01:34:09.610Z,11.03
2023-04-29T01:36:45.025Z,10.93
2023-04-29T01:39:26.031Z,10.84
2023-04-29T01:42:25.509Z,10.97
2023-04-29T01:44:55.416Z,10.98
2023-04-29T01:47:23.458Z,11.11
2023-04-29T01:49:54.351Z,11.11
2023-04-29T01:52:23.297Z,10.96
2023-04-29T01:54:57.432Z,10.98
2023-04-29T01:57:27.348Z,11.02
2023-04-29T02:00:09.230Z,10.93
2023-04-29T02:02:47.525Z,10.85
2023-04-29T02:05:36.750Z,10.89
2023-04-29T02:08:04.642Z,10.94
2023-04-29T02:10:34.124Z,10.79
2023-04-29T02:13:21.923Z,10.81
2023-04-29T02:15:49.757Z,10.79
2023-04-29T02:18:17.390Z,10.66
2023-04-29T02:20:45.332Z,10.73
2023-04-29T02:23:13.130Z,10.83
2023-04-29T02:25:41.756Z,11.03
2023-04-29T02:28:09.871Z,10.98
2023-04-29T02:30:40.558Z,10.86
2023-04-29T02:33:08.757Z,10.79
2023-04-29T02:35:36.528Z,10.80
2023-04-29T02:38:04.182Z,10.90
2023-04-29T02:40:32.666Z,10.72
2023-04-29T02:43:01.625Z,10.53
2023-04-29T02:45:29.774Z,10.87
2023-04-29T02:47:57.499Z,10.75
2023-04-29T02:50:25.669Z,10.77
2023-04-29T02:52:53.283Z,10.77
2023-04-29T02:55:20.921Z,10.66
2023-04-29T02:57:48.515Z,10.58
2023-04-29T03:00:16.244Z,10.74
2023-04-29T03:02:44.004Z,10.59
2023-04-29T03:05:11.727Z,10.71
2023-04-29T03:07:39.629Z,10.82
2023-04-29T03:10:07.799Z,10.60
2023-04-29T03:12:37.544Z,10.78
2023-04-29T03:15:07.217Z,10.67
2023-04-29T03:17:35.470Z,10.62
2023-04-29T03:20:04.075Z,10.66
2023-04-29T03:22:31.841Z,10.80
2023-04-29T03:24:59.400Z,10.67
2023-04-29T03:27:27.998Z,10.78
2023-04-29T03:29:55.857Z,10.86
2023-04-29T03:32:24.248Z,10.78
2023-04-29T03:34:52.084Z,10.75
2023-04-29T03:37:35.384Z,10.80
2023-04-29T03:40:15.897Z,10.78
2023-04-29T03:42:43.413Z,10.91
2023-04-29T03:45:13.285Z,10.73
2023-04-29T03:47:41.288Z,10.69
2023-04-29T03:50:09.332Z,10.70
2023-04-29T03:52:37.384Z,10.66
2023-04-29T03:55:10.753Z,10.70
2023-04-29T03:57:40.929Z,10.80
2023-04-29T04:00:09.974Z,10.88
2023-04-29T04:02:52.296Z,10.74
2023-04-29T04:05:21.127Z,10.77
2023-04-29T04:07:54.151Z,10.73
2023-04-29T04:10:39.937Z,10.50
2023-04-29T04:13:18.758Z,10.57
2023-04-29T04:15:51.386Z,10.57
2023-04-29T04:18:19.113Z,10.61
2023-04-29T04:20:47.368Z,10.62
2023-04-29T04:23:15.041Z,10.64
2023-04-29T04:25:48.274Z,10.71
2023-04-29T04:28:47.850Z,10.67
2023-04-29T04:31:31.974Z,10.74
2023-04-29T04:34:00.066Z,10.68
2023-04-29T04:36:29.472Z,10.87
2023-04-29T04:38:57.135Z,10.88
2023-04-29T04:41:24.802Z,10.92
2023-04-29T04:43:53.587Z,11.02
2023-04-29T04:46:39.657Z,10.89
2023-04-29T04:49:13.942Z,11.09
2023-04-29T04:51:49.208Z,10.94
2023-04-29T04:54:16.998Z,11.02
2023-04-29T04:56:44.815Z,11.09
2023-04-29T04:59:12.361Z,10.96
2023-04-29T05:01:41.832Z,11.15
2023-04-29T05:04:09.861Z,11.15
2023-04-29T05:06:38.322Z,11.13
2023-04-29T05:09:06.597Z,11.09
2023-04-29T05:11:35.528Z,11.30
2023-04-29T05:14:10.426Z,11.23
2023-04-29T05:16:38.457Z,11.27
2023-04-29T05:19:06.161Z,11.07
2023-04-29T05:21:37.799Z,11.38
2023-04-29T05:24:06.298Z,11.07
2023-04-29T05:26:33.932Z,11.36
2023-04-29T05:29:02.579Z,11.67
2023-04-29T05:31:35.760Z,11.48
2023-04-29T05:34:05.841Z,11.37
2023-04-29T05:36:33.884Z,11.37
2023-04-29T05:39:01.502Z,11.37
2023-04-29T05:41:30.052Z,11.34
2023-04-29T05:43:57.606Z,11.62
2023-04-29T05:46:25.413Z,11.37
2023-04-29T05:48:53.045Z,11.56
2023-04-29T05:51:20.561Z,11.56
2023-04-29T05:53:49.887Z,11.78
2023-04-29T05:56:18.173Z,11.85
2023-04-29T05:58:45.926Z,11.65
2023-04-29T06:01:13.566Z,11.86
2023-04-29T06:03:41.996Z,11.84
2023-04-29T06:06:28.952Z,11.87
2023-04-29T06:09:27.523Z,11.87
2023-04-29T06:11:58.295Z,12.16
2023-04-29T06:14:26.005Z,11.97
2023-04-29T06:16:54.127Z,12.05
2023-04-29T06:19:22.080Z,11.94
2023-04-29T06:21:50.523Z,11.80
2023-04-29T06:24:18.513Z,11.89
2023-04-29T06:26:47.020Z,12.02
2023-04-29T06:29:14.621Z,12.04
2023-04-29T06:31:42.173Z,12.33
2023-04-29T06:34:10.937Z,12.49
2023-04-29T06:36:48.545Z,12.42
2023-04-29T06:39:30.279Z,12.29
2023-04-29T06:42:18.537Z,12.29
2023-04-29T06:45:05.483Z,12.26
2023-04-29T06:47:57.117Z,12.47
2023-04-29T06:50:36.696Z,12.49
2023-04-29T06:53:07.885Z,12.27
2023-04-29T06:55:35.986Z,12.19
2023-04-29T06:58:05.628Z,12.25
2023-04-29T07:00:34.961Z,12.49
2023-04-29T07:03:02.973Z,12.19
2023-04-29T07:05:31.012Z,12.27
2023-04-29T07:07:58.635Z,12.48
2023-04-29T07:10:27.891Z,12.08
2023-04-29T07:12:55.713Z,12.13
2023-04-29T07:15:23.287Z,12.31
2023-04-29T07:17:50.904Z,12.34
2023-04-29T07:20:20.727Z,12.23
2023-04-29T07:22:50.066Z,12.13
2023-04-29T07:25:17.962Z,12.28
2023-04-29T07:27:46.194Z,12.17
2023-04-29T07:30:13.928Z,12.26
2023-04-29T07:32:42.028Z,12.31
2023-04-29T07:35:09.811Z,12.51
2023-04-29T07:37:37.965Z,12.71
2023-04-29T07:40:06.272Z,12.81
2023-04-29T07:42:33.982Z,12.81
2023-04-29T07:45:02.272Z,12.64
2023-04-29T07:47:30.136Z,12.82
2023-04-29T07:49:57.721Z,12.67
2023-04-29T07:52:25.429Z,12.66
2023-04-29T07:54:56.473Z,12.80
2023-04-29T07:57:24.718Z,13.02
2023-04-29T07:59:55.690Z,12.74
2023-04-29T08:02:23.863Z,12.74
2023-04-29T08:04:54.915Z,12.95
2023-04-29T08:07:23.890Z,12.77
2023-04-29T08:09:52.462Z,12.74
2023-04-29T08:12:20.267Z,12.97
2023-04-29T08:14:48.328Z,13.08
2023-04-29T08:17:15.983Z,13.11
2023-04-29T08:19:43.552Z,12.98
2023-04-29T08:22:12.335Z,13.33
2023-04-29T08:24:43.015Z,13.15
2023-04-29T08:27:11.198Z,13.23
2023-04-29T08:29:39.516Z,13.07
2023-04-29T08:32:07.781Z,13.23
2023-04-29T08:34:36.451Z,12.97
2023-04-29T08:37:04.119Z,13.05
2023-04-29T08:39:32.023Z,12.83
2023-04-29T08:42:10.409Z,13.05
2023-04-29T08:44:39.677Z,12.89
2023-04-29T08:47:07.358Z,13.38
2023-04-29T08:49:38.213Z,13.22
2023-04-29T08:52:06.382Z,13.07
2023-04-29T08:54:36.578Z,13.11
2023-04-29T08:57:04.362Z,13.09
2023-04-29T08:59:32.446Z,13.04
2023-04-29T09:01:59.984Z,12.98
2023-04-29T09:04:40.880Z,13.10
2023-04-29T09:07:08.600Z,12.84
2023-04-29T09:09:36.395Z,12.94
2023-04-29T09:12:04.645Z,13.46
2023-04-29T09:14:35.171Z,13.00
2023-04-29T09:17:02.706Z,13.17
2023-04-29T09:19:32.152Z,13.05
2023-04-29T09:22:00.092Z,12.88
2023-04-29T09:24:28.499Z,12.79
2023-04-29T09:26:59.052Z,12.83
2023-04-29T09:29:26.689Z,13.09
2023-04-29T09:31:54.264Z,13.37
2023-04-29T09:34:36.527Z,13.59
2023-04-29T09:37:04.118Z,13.31
2023-04-29T09:39:39.069Z,12.98
2023-04-29T09:42:07.007Z,12.83
2023-04-29T09:44:37.983Z,13.07
2023-04-29T09:47:07.517Z,13.18
2023-04-29T09:49:37.511Z,12.90
2023-04-29T09:52:06.329Z,13.02
2023-04-29T09:54:36.601Z,13.25
2023-04-29T09:57:07.844Z,13.03
2023-04-29T09:59:36.673Z,13.13
2023-04-29T10:02:15.767Z,12.90
2023-04-29T10:04:45.473Z,12.81
2023-04-29T10:07:17.271Z,12.67
2023-04-29T10:09:49.303Z,12.60
2023-04-29T10:12:18.681Z,12.78
2023-04-29T10:15:06.885Z,12.66
2023-04-29T10:17:43.587Z,12.69
2023-04-29T10:20:12.168Z,12.54
2023-04-29T10:22:48.033Z,12.67
2023-04-29T10:25:17.123Z,12.55
2023-04-29T10:27:44.983Z,12.71
2023-04-29T10:30:16.917Z,12.75
2023-04-29T10:32:51.180Z,12.40
2023-04-29T10:35:20.683Z,12.81
2023-04-29T10:37:49.055Z,12.83
2023-04-29T10:40:28.490Z,12.72
2023-04-29T10:42:56.306Z,12.42
2023-04-29T10:45:28.873Z,12.63
2023-04-29T10:48:10.850Z,12.40
2023-04-29T10:50:47.534Z,12.82
2023-04-29T10:53:15.733Z,12.86
2023-04-29T10:55:43.557Z,12.97
2023-04-29T10:58:36.989Z,12.91
2023-04-29T11:01:05.259Z,12.82
2023-04-29T11:04:00.406Z,12.95
2023-04-29T11:06:35.053Z,13.04
2023-04-29T11:09:12.735Z,12.79
2023-04-29T11:12:00.875Z,12.65
2023-04-29T11:14:42.022Z,12.85
2023-04-29T11:17:13.844Z,12.71
2023-04-29T11:19:43.138Z,12.95
2023-04-29T11:22:21.263Z,12.63
2023-04-29T11:25:07.467Z,12.81
2023-04-29T11:27:39.230Z,12.77
2023-04-29T11:30:07.801Z,12.93
2023-04-29T11:32:37.710Z,12.87
2023-04-29T11:35:18.540Z,12.74
2023-04-29T11:37:47.110Z,12.70
2023-04-29T11:40:14.827Z,13.00
2023-04-29T11:42:44.572Z,13.11
2023-04-29T11:45:12.597Z,13.11
2023-04-29T11:47:43.373Z,12.91
2023-04-29T11:50:11.469Z,12.94
2023-04-29T11:52:42.194Z,13.03
2023-04-29T11:55:10.185Z,13.05
2023-04-29T11:57:39.323Z,13.04
2023-04-29T12:00:16.903Z,13.10
2023-04-29T12:02:49.006Z,13.43
2023-04-29T12:05:19.629Z,13.26
2023-04-29T12:07:49.044Z,13.28
2023-04-29T12:10:16.604Z,12.98
2023-04-29T12:12:45.696Z,13.36
2023-04-29T12:15:13.335Z,13.31
2023-04-29T12:17:41.320Z,13.10
2023-04-29T12:20:11.091Z,13.17
2023-04-29T12:22:39.241Z,13.16
2023-04-29T12:25:08.096Z,13.07
2023-04-29T12:27:36.925Z,13.39
2023-04-29T12:30:09.706Z,13.48
2023-04-29T12:32:37.823Z,13.22
2023-04-29T12:35:05.791Z,13.38
2023-04-29T12:37:33.869Z,13.39
2023-04-29T12:40:01.746Z,13.34
2023-04-29T12:42:36.549Z,13.75
2023-04-29T12:45:04.852Z,13.46
2023-04-29T12:47:37.402Z,13.68
2023-04-29T12:50:07.264Z,13.84
2023-04-29T12:52:36.777Z,13.55
2023-04-29T12:55:05.041Z,13.21
2023-04-29T12:57:32.980Z,13.18
2023-04-29T13:00:00.595Z,13.26
2023-04-29T13:02:28.526Z,13.30
2023-04-29T13:04:56.576Z,13.11
2023-04-29T13:07:24.727Z,13.25
2023-04-29T13:09:52.325Z,13.12
2023-04-29T13:12:19.902Z,13.21
2023-04-29T13:14:47.817Z,13.16
2023-04-29T13:17:15.719Z,13.07
2023-04-29T13:19:51.806Z,12.96
2023-04-29T13:22:19.980Z,13.13
2023-04-29T13:24:47.811Z,13.04
2023-04-29T13:27:15.534Z,12.94
2023-04-29T13:29:43.181Z,13.02
2023-04-29T13:32:10.902Z,12.87
2023-04-29T13:34:38.599Z,12.77
2023-04-29T13:37:06.164Z,13.03
2023-04-29T13:39:38.142Z,13.04
2023-04-29T13:42:06.677Z,13.02
2023-04-29T13:44:46.143Z,13.10
2023-04-29T13:47:25.210Z,12.98
2023-04-29T13:50:22.750Z,13.11
2023-04-29T14:00:38.135Z,13.23
2023-04-29T14:03:04.681Z,13.06
2023-04-29T14:05:33.933Z,13.19
2023-04-29T14:08:02.849Z,13.23
2023-04-29T14:10:31.542Z,13.31
2023-04-29T14:12:59.369Z,13.13
2023-04-29T14:15:27.699Z,13.07
2023-04-29T14:17:57.350Z,13.00
2023-04-29T14:20:27.200Z,13.08
2023-04-29T14:22:54.887Z,13.11
2023-04-29T14:25:26.595Z,13.25
2023-04-29T14:27:56.389Z,13.16
2023-04-29T14:30:25.083Z,13.15
2023-04-29T14:32:53.155Z,13.24
2023-04-29T14:35:21.785Z,13.14
2023-04-29T14:37:50.753Z,13.13
2023-04-29T14:40:19.498Z,13.29
2023-04-29T14:42:47.671Z,13.27
2023-04-29T14:45:17.394Z,13.44
2023-04-29T14:47:45.695Z,13.22
2023-04-29T14:50:17.116Z,13.41
2023-04-29T14:52:46.650Z,13.63
2023-04-29T14:55:19.124Z,13.30
2023-04-29T14:57:47.630Z,13.38
2023-04-29T15:00:15.885Z,13.32
2023-04-29T15:02:43.982Z,13.36
2023-04-29T15:05:12.241Z,13.61
2023-04-29T15:07:40.813Z,13.42
2023-04-29T15:10:10.566Z,13.49
2023-04-29T15:12:38.766Z,13.50
2023-04-29T15:15:09.250Z,13.51
2023-04-29T15:17:38.334Z,13.41
2023-04-29T15:20:07.699Z,13.41
2023-04-29T15:22:35.647Z,13.42
2023-04-29T15:25:03.677Z,13.36
2023-04-29T15:27:33.589Z,13.45
2023-04-29T15:30:01.466Z,13.28
2023-04-29T15:32:32.534Z,13.57
2023-04-29T15:35:04.049Z,13.38
2023-04-29T15:37:32.841Z,13.37
2023-04-29T15:40:02.454Z,13.38
2023-04-29T15:42:30.264Z,13.32
2023-04-29T15:44:57.934Z,13.16
2023-04-29T15:47:26.010Z,13.40
2023-04-29T15:49:58.649Z,13.24
2023-04-29T15:52:26.907Z,13.38
2023-04-29T15:54:55.723Z,13.20
2023-04-29T15:57:23.675Z,13.27
2023-04-29T15:59:52.253Z,13.20
2023-04-29T16:02:21.391Z,13.21
2023-04-29T16:04:49.162Z,13.23
2023-04-29T16:07:17.615Z,13.15
2023-04-29T16:09:46.096Z,13.08
2023-04-29T16:12:14.193Z,13.04
2023-04-29T16:14:42.146Z,13.05
2023-04-29T16:17:09.943Z,13.09
2023-04-29T16:19:37.868Z,13.15
2023-04-29T16:22:05.580Z,13.09
2023-04-29T16:24:33.325Z,13.16
2023-04-29T16:27:01.613Z,13.22
2023-04-29T16:29:29.636Z,13.10
2023-04-29T16:31:57.560Z,13.29
2023-04-29T16:34:25.109Z,13.41
2023-04-29T16:36:52.826Z,13.27
2023-04-29T16:39:20.351Z,13.30
2023-04-29T16:41:48.042Z,13.39
2023-04-29T16:44:15.699Z,13.41
2023-04-29T16:46:43.420Z,13.11
2023-04-29T16:49:11.132Z,13.22
2023-04-29T16:51:39.093Z,13.20
2023-04-29T16:54:08.137Z,13.08
2023-04-29T16:56:36.144Z,13.11
2023-04-29T16:59:03.755Z,13.09
2023-04-29T17:01:32.266Z,13.09
2023-04-29T17:03:59.821Z,13.06
2023-04-29T17:06:27.904Z,13.04
2023-04-29T17:08:56.146Z,12.92
2023-04-29T17:11:24.326Z,13.10
2023-04-29T17:13:51.812Z,12.93
2023-04-29T17:16:19.731Z,12.99
2023-04-29T17:18:47.648Z,12.99
2023-04-29T17:21:15.535Z,13.04
2023-04-29T17:23:43.195Z,12.83
2023-04-29T17:26:11.377Z,12.87
2023-04-29T17:28:39.015Z,13.02
2023-04-29T17:31:07.135Z,12.87
2023-04-29T17:33:35.718Z,13.02
2023-04-29T17:36:03.832Z,12.77
2023-04-29T17:38:35.093Z,12.84
2023-04-29T17:41:02.745Z,12.68
2023-04-29T17:43:33.380Z,12.72
2023-04-29T17:46:01.086Z,12.77
2023-04-29T17:48:28.910Z,12.76
2023-04-29T17:50:56.565Z,12.69
2023-04-29T17:53:24.065Z,12.76
2023-04-29T17:55:51.576Z,12.51
2023-04-29T17:58:19.173Z,12.48
2023-04-29T18:00:47.452Z,12.37
2023-04-29T18:03:15.483Z,12.45
2023-04-29T18:05:44.095Z,12.30
2023-04-29T18:08:11.732Z,12.32
2023-04-29T18:10:39.489Z,12.26
2023-04-29T18:13:07.072Z,12.01
2023-04-29T18:15:36.048Z,12.07
2023-04-29T18:18:04.130Z,12.22
2023-04-29T18:20:32.755Z,11.98
2023-04-29T18:23:00.342Z,12.20
2023-04-29T18:25:28.071Z,12.15
2023-04-29T18:28:07.604Z,12.06
2023-04-29T18:30:41.062Z,12.04
2023-04-29T18:33:08.836Z,12.03
2023-04-29T18:35:37.847Z,12.05
2023-04-29T18:38:06.186Z,11.98
2023-04-29T18:40:33.930Z,11.97
2023-04-29T18:43:02.176Z,11.97
2023-04-29T18:45:29.781Z,12.07
2023-04-29T18:47:57.465Z,11.96
2023-04-29T18:50:25.132Z,12.06
2023-04-29T18:52:52.713Z,12.22
2023-04-29T18:55:20.424Z,12.35
2023-04-29T18:57:48.512Z,12.29
2023-04-29T19:00:16.676Z,12.17
2023-04-29T19:02:44.288Z,12.10
2023-04-29T19:05:13.023Z,11.96
2023-04-29T19:07:40.828Z,12.05
2023-04-29T19:10:08.944Z,12.15
2023-04-29T19:12:37.053Z,12.07
2023-04-29T19:15:05.143Z,12.06
2023-04-29T19:17:33.222Z,11.93
2023-04-29T19:20:01.064Z,12.10
2023-04-29T19:22:28.868Z,11.89
2023-04-29T19:24:56.530Z,12.18
2023-04-29T19:27:24.310Z,11.99
2023-04-29T19:29:52.288Z,12.08
2023-04-29T19:32:20.473Z,12.00
2023-04-29T19:34:48.049Z,12.12
2023-04-29T19:37:15.981Z,12.15
2023-04-29T19:39:43.790Z,11.97
2023-04-29T19:42:12.524Z,12.27
2023-04-29T19:44:40.229Z,12.15
2023-04-29T19:47:07.990Z,11.96
2023-04-29T19:49:36.592Z,11.99
2023-04-29T19:52:05.326Z,12.03
2023-04-29T19:54:35.022Z,12.11
2023-04-29T19:57:03.212Z,12.10
2023-04-29T19:59:31.326Z,12.14
2023-04-29T20:01:59.509Z,12.06
2023-04-29T20:04:27.120Z,12.03
2023-04-29T20:06:54.782Z,12.19
2023-04-29T20:09:22.426Z,12.08
2023-04-29T20:11:49.938Z,12.31
2023-04-29T20:14:17.388Z,12.23
2023-04-29T20:16:44.949Z,12.07
2023-04-29T20:19:12.450Z,12.01
2023-04-29T20:21:40.524Z,12.15
2023-04-29T20:24:08.293Z,12.36
2023-04-29T20:26:35.812Z,12.24
2023-04-29T20:29:03.781Z,12.36
2023-04-29T20:31:31.390Z,12.31
2023-04-29T20:33:58.939Z,12.31
2023-04-29T20:36:28.552Z,12.43
2023-04-29T20:38:56.094Z,12.41
2023-04-29T20:41:23.653Z,12.25
2023-04-29T20:43:52.071Z,12.26
2023-04-29T20:46:19.613Z,12.31
2023-04-29T20:48:47.306Z,12.20
2023-04-29T20:51:14.886Z,12.27
2023-04-29T20:53:42.441Z,12.21
2023-04-29T20:56:10.728Z,12.29
2023-04-29T20:58:38.257Z,12.09
2023-04-29T21:01:05.899Z,12.18
2023-04-29T21:03:34.860Z,12.14
2023-04-29T21:06:02.504Z,11.98
2023-04-29T21:08:30.312Z,12.10
2023-04-29T21:10:57.833Z,12.13
2023-04-29T21:13:26.156Z,12.22
2023-04-29T21:15:53.649Z,12.06
2023-04-29T21:18:21.242Z,12.00
2023-04-29T21:20:49.177Z,11.83
2023-04-29T21:23:16.831Z,11.86
2023-04-29T21:25:44.388Z,11.94
2023-04-29T21:28:12.529Z,11.86
2023-04-29T21:30:40.985Z,11.83
2023-04-29T21:33:08.710Z,11.71
2023-04-29T21:35:38.987Z,11.79
2023-04-29T21:38:06.552Z,11.82
2023-04-29T21:40:34.965Z,11.84
2023-04-29T21:43:02.568Z,11.56
2023-04-29T21:45:30.203Z,11.59
2023-04-29T21:47:59.709Z,11.45
2023-04-29T21:50:27.406Z,11.69
2023-04-29T21:52:55.775Z,11.60
2023-04-29T21:55:25.844Z,11.52
2023-04-29T21:57:53.818Z,11.58
2023-04-29T22:00:33.511Z,11.58
2023-04-29T22:03:02.158Z,11.48
2023-04-29T22:05:30.493Z,11.39
2023-04-29T22:07:58.976Z,11.32
2023-04-29T22:10:26.561Z,11.38
2023-04-29T22:12:54.304Z,11.50
2023-04-29T22:15:28.647Z,11.44
2023-04-29T22:17:57.494Z,11.37
2023-04-29T22:20:25.659Z,11.33
2023-04-29T22:22:53.739Z,11.37
2023-04-29T22:25:22.055Z,11.18
2023-04-29T22:27:50.371Z,11.15
2023-04-29T22:30:18.277Z,11.21
2023-04-29T22:32:46.038Z,10.85
2023-04-29T22:35:13.663Z,10.81
2023-04-29T22:37:43.716Z,11.12
2023-04-29T22:40:12.423Z,11.08
2023-04-29T22:42:41.986Z,11.00
2023-04-29T22:45:11.192Z,10.99
2023-04-29T22:47:38.972Z,11.13
2023-04-29T22:50:07.086Z,11.02
2023-04-29T22:52:34.957Z,10.93
2023-04-29T22:55:02.438Z,11.04
2023-04-29T22:57:30.488Z,10.98
2023-04-29T22:59:58.210Z,10.84
2023-04-29T23:02:29.695Z,10.88
2023-04-29T23:04:59.599Z,10.84
2023-04-29T23:07:27.638Z,10.91
2023-04-29T23:09:55.582Z,10.92
2023-04-29T23:12:24.470Z,10.81
2023-04-29T23:14:55.043Z,10.85
2023-04-29T23:17:22.949Z,10.76
2023-04-29T23:19:50.796Z,10.72
2023-04-29T23:22:18.505Z,10.77
2023-04-29T23:24:46.168Z,10.65
2023-04-29T23:27:14.129Z,10.54
2023-04-29T23:29:42.016Z,10.78
2023-04-29T23:32:10.057Z,10.71
2023-04-29T23:34:38.219Z,10.58
2023-04-29T23:37:05.678Z,10.52
2023-04-29T23:39:33.671Z,10.46
2023-04-29T23:42:01.322Z,10.45
2023-04-29T23:44:29.038Z,10.38
2023-04-29T23:46:56.748Z,10.34
2023-04-29T23:49:24.213Z,10.33
2023-04-29T23:51:51.817Z,10.17
2023-04-29T23:54:19.307Z,10.31
2023-04-29T23:56:46.942Z,10.14
2023-04-29T23:59:14.544Z,10.28
